Time;durP1;ratioP1;P1;durP2;ratioP2;P2;SDS_P1;SDS_P2;PMS_P1;PMS_P2;Temp;Humidity;BMP_temperature;BMP_pressure;BME280_temperature;BME280_humidity;BME280_pressure;Samples;Min_cycle;Max_cycle;Signal;HPM_P1;HPM_P2
2022/10/16 00:02:25;;;;;;;89.67;75.17;;;23.50;99.90;;;;;;5095811;28;20229;-94
2022/10/16 00:04:56;;;;;;;88.30;75.60;;;23.50;99.90;;;;;;5095021;28;20203;-94
2022/10/16 00:07:29;;;;;;;89.73;77.10;;;23.40;99.90;;;;;;5095071;28;20209;-93
2022/10/16 00:10:02;;;;;;;91.97;78.00;;;23.30;99.90;;;;;;5094749;28;20202;-94
2022/10/16 00:12:34;;;;;;;92.47;77.87;;;23.20;99.90;;;;;;5093506;28;20301;-94
2022/10/16 00:15:07;;;;;;;92.47;77.97;;;23.10;99.90;;;;;;5094715;28;20203;-94
2022/10/16 00:17:39;;;;;;;96.57;80.50;;;22.90;99.90;;;;;;5095918;28;20211;-94
2022/10/16 00:20:11;;;;;;;101.30;83.33;;;22.80;99.90;;;;;;5093914;28;20257;-93
2022/10/16 00:22:42;;;;;;;101.90;86.70;;;22.80;99.90;;;;;;5110371;28;20270;-93
2022/10/16 00:25:15;;;;;;;105.13;87.77;;;22.80;99.90;;;;;;5097487;28;20203;-94
2022/10/16 00:27:48;;;;;;;108.97;87.23;;;22.70;99.90;;;;;;5101693;28;20206;-92
2022/10/16 00:30:19;;;;;;;100.97;85.33;;;22.60;99.90;;;;;;5096559;28;20214;-94
2022/10/16 00:32:50;;;;;;;111.77;88.37;;;22.50;99.90;;;;;;5112281;28;20207;-93
2022/10/16 00:35:21;;;;;;;109.87;91.07;;;22.40;99.90;;;;;;5102569;28;20278;-94
2022/10/16 00:37:53;;;;;;;117.10;94.83;;;22.30;99.90;;;;;;5097730;28;20202;-93
2022/10/16 00:40:26;;;;;;;112.13;93.80;;;22.10;99.90;;;;;;5097220;28;20234;-93
2022/10/16 00:42:57;;;;;;;121.93;99.83;;;22.00;99.90;;;;;;5100012;28;20207;-93
2022/10/16 00:45:28;;;;;;;120.37;97.50;;;21.80;99.90;;;;;;5103216;28;20193;-93
2022/10/16 00:48:00;;;;;;;127.37;105.27;;;21.70;99.90;;;;;;5099544;28;20656;-92
2022/10/16 00:50:34;;;;;;;133.73;109.77;;;21.60;99.90;;;;;;5103355;28;20207;-94
2022/10/16 00:53:06;;;;;;;133.73;111.30;;;21.50;99.90;;;;;;5100049;28;20217;-94
2022/10/16 00:55:39;;;;;;;130.13;107.57;;;21.40;99.90;;;;;;5098408;28;20211;-94
2022/10/16 00:58:12;;;;;;;127.30;105.83;;;21.30;99.90;;;;;;5097537;28;20210;-94
2022/10/16 01:00:44;;;;;;;132.90;111.13;;;21.10;99.90;;;;;;5098754;28;20241;-94
2022/10/16 01:03:30;;;;;;;138.87;113.03;;;20.90;99.90;;;;;;5096843;28;20279;-93
2022/10/16 01:06:19;;;;;;;142.10;112.93;;;20.80;99.90;;;;;;5098240;28;20199;-94
2022/10/16 01:09:02;;;;;;;143.70;116.57;;;20.60;99.90;;;;;;5098002;28;20289;-93
2022/10/16 01:11:40;;;;;;;142.53;116.07;;;20.50;99.90;;;;;;5099518;28;20207;-92
2022/10/16 01:14:21;;;;;;;148.67;118.47;;;20.40;99.90;;;;;;5097885;28;20222;-94
2022/10/16 01:17:00;;;;;;;148.77;121.07;;;20.20;99.90;;;;;;5100677;28;20206;-94
2022/10/16 01:19:46;;;;;;;149.67;122.90;;;20.00;99.90;;;;;;5099951;28;20330;-93
2022/10/16 01:22:18;;;;;;;152.37;123.30;;;19.90;99.90;;;;;;5097905;28;20202;-92
2022/10/16 01:24:52;;;;;;;156.30;124.63;;;19.80;99.90;;;;;;5098574;28;20207;-94
2022/10/16 01:27:29;;;;;;;151.00;124.80;;;19.60;99.90;;;;;;5098090;28;20203;-94
2022/10/16 01:30:09;;;;;;;152.37;124.83;;;19.50;99.90;;;;;;5099825;28;20290;-93
2022/10/16 01:32:42;;;;;;;157.73;126.13;;;19.50;99.90;;;;;;5096441;28;20206;-94
2022/10/16 01:35:21;;;;;;;158.60;127.33;;;19.40;99.90;;;;;;5097478;28;20230;-93
2022/10/16 01:37:57;;;;;;;159.90;125.27;;;19.30;99.90;;;;;;5097377;27;20215;-93
2022/10/16 01:40:30;;;;;;;160.57;127.70;;;19.10;99.90;;;;;;5096296;28;20241;-93
2022/10/16 01:43:07;;;;;;;156.13;127.17;;;19.10;99.90;;;;;;5096815;28;20203;-93
2022/10/16 01:45:38;;;;;;;165.10;129.83;;;19.00;99.90;;;;;;5096804;28;20221;-95
2022/10/16 01:48:11;;;;;;;165.87;128.07;;;18.90;99.90;;;;;;5089531;28;20207;-94
2022/10/16 01:50:45;;;;;;;164.17;127.57;;;18.80;99.90;;;;;;5078493;28;20668;-92
2022/10/16 01:53:19;;;;;;;161.20;129.27;;;18.70;99.90;;;;;;5084878;28;20205;-93
2022/10/16 01:55:51;;;;;;;156.53;126.63;;;18.70;99.90;;;;;;5098096;28;20246;-93
2022/10/16 01:58:27;;;;;;;163.07;125.10;;;18.70;99.90;;;;;;5098787;28;20205;-93
2022/10/16 02:00:58;;;;;;;160.73;125.03;;;18.60;99.90;;;;;;5100119;28;20256;-93
2022/10/16 02:03:31;;;;;;;157.93;125.17;;;18.50;99.90;;;;;;5096820;27;20211;-94
2022/10/16 02:06:02;;;;;;;164.50;125.47;;;18.40;99.90;;;;;;5095548;28;20195;-94
2022/10/16 02:08:34;;;;;;;152.20;121.60;;;18.30;99.90;;;;;;5097207;28;20203;-93
2022/10/16 02:11:06;;;;;;;156.73;121.33;;;18.30;99.90;;;;;;5097262;28;20218;-93
2022/10/16 02:13:44;;;;;;;151.77;120.93;;;18.20;99.90;;;;;;5095554;28;20206;-93
2022/10/16 02:16:16;;;;;;;150.93;117.67;;;18.20;99.90;;;;;;5095940;28;20198;-92
2022/10/16 02:18:47;;;;;;;147.97;117.63;;;18.20;99.90;;;;;;5096923;28;20647;-92
2022/10/16 02:21:25;;;;;;;156.23;120.33;;;18.10;99.90;;;;;;5096855;28;20674;-91
2022/10/16 02:24:03;;;;;;;153.97;121.27;;;18.10;99.90;;;;;;5096131;28;20249;-93
2022/10/16 02:26:41;;;;;;;152.60;119.50;;;18.00;99.90;;;;;;5096217;28;20553;-93
2022/10/16 02:29:16;;;;;;;157.10;120.73;;;17.90;99.90;;;;;;5096646;28;20218;-93
2022/10/16 02:31:51;;;;;;;158.77;119.00;;;17.90;99.90;;;;;;5097138;28;20217;-93
2022/10/16 02:34:26;;;;;;;156.80;117.67;;;17.80;99.90;;;;;;5098699;28;20210;-93
2022/10/16 02:36:58;;;;;;;154.10;118.03;;;17.70;99.90;;;;;;5099739;28;20207;-92
2022/10/16 02:39:30;;;;;;;154.93;118.77;;;17.60;99.90;;;;;;5097042;27;20213;-92
2022/10/16 02:42:01;;;;;;;151.87;118.70;;;17.50;99.90;;;;;;5098110;28;20560;-93
2022/10/16 02:44:34;;;;;;;153.80;119.00;;;17.50;99.90;;;;;;5099840;28;20211;-94
2022/10/16 02:47:05;;;;;;;147.50;113.73;;;17.40;99.90;;;;;;5103054;27;20238;-92
2022/10/16 02:49:37;;;;;;;148.87;115.70;;;17.30;99.90;;;;;;5089990;28;20265;-94
2022/10/16 02:52:08;;;;;;;142.33;112.10;;;17.30;99.90;;;;;;5093193;28;20275;-94
2022/10/16 02:54:39;;;;;;;150.70;113.23;;;17.20;99.90;;;;;;5089498;28;20222;-93
2022/10/16 02:57:10;;;;;;;141.37;107.80;;;17.10;99.90;;;;;;5093742;28;20222;-93
2022/10/16 02:59:44;;;;;;;137.07;106.30;;;17.10;99.90;;;;;;5080965;28;20200;-91
2022/10/16 03:02:15;;;;;;;134.03;100.50;;;17.00;99.90;;;;;;5077923;28;20200;-92
2022/10/16 03:04:47;;;;;;;132.37;102.43;;;16.90;99.90;;;;;;5088801;28;20203;-94
2022/10/16 03:07:19;;;;;;;126.87;97.23;;;16.90;99.90;;;;;;5091217;28;20663;-94
2022/10/16 03:09:51;;;;;;;127.27;98.83;;;16.80;99.90;;;;;;5095080;28;20297;-91
2022/10/16 03:12:24;;;;;;;125.73;93.50;;;16.80;99.90;;;;;;5101938;27;20546;-95
2022/10/16 03:47:23;;;;;;;108.67;82.47;;;16.20;99.90;;;;;;5931522;23;20237;-95
2022/10/16 03:52:31;;;;;;;103.40;77.43;;;16.10;99.90;;;;;;4993620;28;20340;-96
2022/10/16 03:55:04;;;;;;;103.83;78.53;;;16.10;99.90;;;;;;5082396;23;20258;-96
2022/10/16 03:57:38;;;;;;;100.80;75.87;;;16.00;99.90;;;;;;4983603;28;20253;-96
2022/10/16 04:00:14;;;;;;;99.67;77.37;;;15.90;99.90;;;;;;4990256;28;20731;-96
2022/10/16 04:02:48;;;;;;;98.00;73.07;;;15.90;99.90;;;;;;4995978;28;20573;-91
2022/10/16 04:05:21;;;;;;;94.40;74.10;;;15.90;99.90;;;;;;4968245;28;20289;-96
2022/10/16 04:07:56;;;;;;;98.43;72.83;;;15.90;99.90;;;;;;4979443;28;20208;-96
2022/10/16 04:10:29;;;;;;;93.00;70.77;;;15.90;99.90;;;;;;4982337;28;20209;-96
2022/10/16 04:13:02;;;;;;;96.47;70.57;;;15.80;99.90;;;;;;4995795;28;20194;-96
2022/10/16 04:15:34;;;;;;;94.23;69.80;;;15.80;99.90;;;;;;5000374;28;20207;-96
2022/10/16 04:18:11;;;;;;;95.07;70.23;;;15.70;99.90;;;;;;4998433;28;20199;-96
2022/10/16 04:20:47;;;;;;;92.87;67.30;;;15.70;99.90;;;;;;4988288;28;20322;-96
2022/10/16 04:23:23;;;;;;;93.60;69.97;;;15.60;99.90;;;;;;4996892;28;20210;-96
2022/10/16 04:25:55;;;;;;;91.73;68.57;;;15.60;99.90;;;;;;4998575;28;20194;-96
2022/10/16 04:28:37;;;;;;;91.40;65.30;;;15.60;99.90;;;;;;4997149;28;20203;-96
2022/10/16 04:41:56;;;;;;;80.27;57.17;;;15.50;99.90;;;;;;4929374;29;20243;-96
2022/10/16 04:44:32;;;;;;;77.43;58.50;;;15.50;99.90;;;;;;4940434;29;20212;-96
2022/10/16 04:47:05;;;;;;;78.30;56.27;;;15.30;99.90;;;;;;4937119;29;20220;-96
2022/10/16 04:49:37;;;;;;;78.20;57.77;;;15.30;99.90;;;;;;4937548;29;20276;-96
2022/10/16 04:52:11;;;;;;;77.27;57.37;;;15.30;99.90;;;;;;4937722;28;20205;-96
2022/10/16 04:54:46;;;;;;;79.77;54.30;;;15.20;99.90;;;;;;4939365;29;20241;-96
2022/10/16 04:57:24;;;;;;;70.50;53.50;;;15.20;99.90;;;;;;4939991;29;20252;-96
2022/10/16 04:59:57;;;;;;;77.30;53.90;;;15.10;99.90;;;;;;4933214;29;20240;-96
2022/10/16 05:02:30;;;;;;;68.00;51.47;;;15.20;99.90;;;;;;4940853;29;20232;-96
2022/10/16 05:05:03;;;;;;;71.63;52.87;;;15.10;99.90;;;;;;4936471;29;20213;-92
2022/10/16 05:07:36;;;;;;;63.17;49.40;;;15.10;99.90;;;;;;4939443;29;20245;-96
2022/10/16 05:10:08;;;;;;;65.07;49.57;;;15.20;99.90;;;;;;4950245;29;20259;-90
2022/10/16 05:12:42;;;;;;;67.57;49.83;;;15.10;99.90;;;;;;4946615;29;20189;-96
2022/10/16 05:15:14;;;;;;;66.83;49.50;;;15.10;99.90;;;;;;4948424;29;20442;-96
2022/10/16 05:17:47;;;;;;;65.57;48.60;;;15.10;99.90;;;;;;4929673;29;20257;-96
2022/10/16 05:20:19;;;;;;;62.87;46.47;;;15.00;99.90;;;;;;4938765;29;20204;-96
2022/10/16 05:22:53;;;;;;;59.47;44.40;;;15.00;99.90;;;;;;4942092;29;20204;-96
2022/10/16 05:25:25;;;;;;;58.23;42.67;;;15.10;99.90;;;;;;4935433;29;20217;-91
2022/10/16 05:28:00;;;;;;;59.20;42.10;;;15.00;99.90;;;;;;4954184;29;20204;-96
2022/10/16 05:30:33;;;;;;;52.03;39.87;;;15.10;99.90;;;;;;4951125;29;20216;-96
2022/10/16 05:33:05;;;;;;;51.80;37.90;;;15.10;99.90;;;;;;4951374;29;20237;-96
2022/10/16 05:41:26;;;;;;;50.73;34.53;;;15.20;99.90;;;;;;5410186;23;20242;-96
2022/10/16 05:44:03;;;;;;;48.77;35.80;;;15.20;99.90;;;;;;5019880;28;20197;-97
2022/10/16 06:38:20;;;;;;;36.67;25.43;;;15.70;99.90;;;;;;4968808;28;20211;-96
2022/10/16 06:46:28;;;;;;;46.87;33.53;;;15.60;99.90;;;;;;5677233;23;20317;-96
2022/10/16 06:49:00;;;;;;;43.37;32.77;;;15.50;99.90;;;;;;4987125;28;20279;-96
2022/10/16 06:51:41;;;;;;;45.27;36.13;;;15.40;99.90;;;;;;4994673;28;20210;-96
2022/10/16 06:54:18;;;;;;;48.63;36.40;;;15.30;99.90;;;;;;4995045;28;20234;-96
2022/10/16 06:56:50;;;;;;;49.73;35.67;;;15.30;99.90;;;;;;4996107;28;20210;-96
2022/10/16 06:59:21;;;;;;;47.23;35.90;;;15.20;99.90;;;;;;4995960;28;20229;-96
2022/10/16 07:01:53;;;;;;;46.23;35.73;;;15.10;99.90;;;;;;4993487;28;20226;-96
2022/10/16 07:04:27;;;;;;;44.83;33.73;;;15.00;99.90;;;;;;4995520;28;20203;-96
2022/10/16 07:07:03;;;;;;;47.30;32.80;;;15.00;99.90;;;;;;4994203;28;20209;-96
2022/10/16 08:22:53;;;;;;;33.40;25.53;;;14.70;99.90;;;;;;5011699;28;20229;-96
2022/10/16 08:25:37;;;;;;;34.37;25.67;;;14.80;99.90;;;;;;5032645;23;20251;-96
2022/10/16 08:28:12;;;;;;;33.70;23.83;;;14.80;99.90;;;;;;5065933;28;20212;-96
2022/10/16 08:33:24;;;;;;;31.07;22.83;;;14.70;99.90;;;;;;5515783;23;20245;-96
2022/10/16 08:36:02;;;;;;;30.57;22.70;;;14.70;99.90;;;;;;5036326;28;20197;-96
2022/10/16 08:38:42;;;;;;;30.90;23.40;;;14.80;99.90;;;;;;5035006;28;20236;-96
2022/10/16 08:46:42;;;;;;;28.73;20.63;;;14.80;99.90;;;;;;5067094;23;20252;-96
2022/10/16 08:49:28;;;;;;;27.80;20.97;;;14.80;99.90;;;;;;5055389;28;20205;-96
2022/10/16 08:52:07;;;;;;;26.53;20.37;;;14.70;99.90;;;;;;5052916;28;20196;-96
2022/10/16 08:54:58;;;;;;;29.13;21.07;;;14.80;99.90;;;;;;5253303;23;20229;-96
2022/10/16 08:57:38;;;;;;;29.43;20.37;;;14.70;99.90;;;;;;5032212;28;20221;-96
2022/10/16 09:00:27;;;;;;;28.10;20.03;;;14.60;99.90;;;;;;5036228;28;20209;-96
2022/10/16 09:03:39;;;;;;;27.70;19.80;;;14.60;99.90;;;;;;5038536;28;20237;-96
2022/10/16 09:06:33;;;;;;;31.83;20.17;;;14.60;99.90;;;;;;5040140;28;20217;-96
2022/10/16 09:09:38;;;;;;;29.93;20.83;;;14.60;99.90;;;;;;5040113;28;20213;-96
2022/10/16 09:53:13;;;;;;;25.90;18.83;;;14.30;99.90;;;;;;5017659;28;20232;-96
2022/10/16 10:01:20;;;;;;;26.37;18.00;;;14.20;99.90;;;;;;5666479;23;20315;-96
2022/10/16 10:04:07;;;;;;;23.80;17.80;;;14.20;99.90;;;;;;5037196;28;20233;-96
2022/10/16 10:06:43;;;;;;;26.77;18.27;;;14.20;99.90;;;;;;5036442;28;20213;-96
2022/10/16 10:09:27;;;;;;;27.67;17.37;;;14.20;99.90;;;;;;5033259;28;20205;-96
2022/10/16 10:12:04;;;;;;;24.33;17.53;;;14.20;99.90;;;;;;5030692;28;20232;-96
2022/10/16 10:14:43;;;;;;;27.17;18.53;;;14.20;99.90;;;;;;5037133;28;20273;-96
2022/10/16 10:17:18;;;;;;;25.87;16.50;;;14.20;99.90;;;;;;5036963;28;20240;-96
2022/10/16 10:19:55;;;;;;;23.27;16.73;;;14.20;99.90;;;;;;5034728;28;20210;-96
2022/10/16 10:22:35;;;;;;;24.87;16.97;;;14.20;99.90;;;;;;5343264;23;20236;-96
2022/10/16 10:25:31;;;;;;;22.00;16.47;;;14.20;99.90;;;;;;5072852;28;20269;-96
2022/10/16 10:28:30;;;;;;;25.57;15.90;;;14.20;99.90;;;;;;5070050;28;20208;-96
2022/10/16 10:31:10;;;;;;;21.50;16.30;;;14.20;99.90;;;;;;5067756;28;20585;-96
2022/10/16 10:33:52;;;;;;;19.03;15.57;;;14.20;99.90;;;;;;5073758;28;20275;-96
2022/10/16 10:36:37;;;;;;;24.10;16.23;;;14.20;99.90;;;;;;5075327;28;20232;-96
2022/10/16 10:39:16;;;;;;;21.70;15.13;;;14.20;99.90;;;;;;5075967;28;20540;-96
2022/10/16 10:42:17;;;;;;;23.00;15.10;;;14.10;99.90;;;;;;5076522;28;20215;-96
2022/10/16 10:45:13;;;;;;;21.53;14.83;;;14.10;99.90;;;;;;5071870;28;20286;-96
2022/10/16 10:47:55;;;;;;;22.73;14.53;;;14.10;99.90;;;;;;5067422;28;20215;-96
2022/10/16 10:50:33;;;;;;;21.33;14.63;;;14.00;99.90;;;;;;5070884;28;20211;-96
2022/10/16 10:53:14;;;;;;;21.60;14.17;;;14.00;99.90;;;;;;5068912;28;20210;-96
2022/10/16 10:55:54;;;;;;;20.07;14.83;;;14.00;99.90;;;;;;5073225;28;20205;-96
2022/10/16 10:59:01;;;;;;;23.93;15.93;;;14.00;99.90;;;;;;5076761;28;20192;-96
2022/10/16 11:01:44;;;;;;;21.87;15.27;;;13.90;99.90;;;;;;5067622;28;20215;-96
2022/10/16 11:04:57;;;;;;;21.57;15.93;;;14.00;99.90;;;;;;5075647;28;20216;-96
2022/10/16 11:07:35;;;;;;;22.03;15.73;;;13.90;99.90;;;;;;5073114;28;20188;-96
2022/10/16 11:10:14;;;;;;;23.17;15.13;;;13.90;99.90;;;;;;5061071;28;20221;-96
2022/10/16 11:12:50;;;;;;;23.93;15.60;;;13.90;99.90;;;;;;5052486;28;20284;-96
2022/10/16 11:15:29;;;;;;;21.97;15.03;;;13.90;99.90;;;;;;5053678;28;20272;-96
2022/10/16 11:18:08;;;;;;;22.93;16.17;;;13.90;99.90;;;;;;5052463;28;20211;-96
2022/10/16 11:20:45;;;;;;;21.43;15.10;;;13.90;99.90;;;;;;5050557;28;20228;-96
2022/10/16 11:23:21;;;;;;;23.17;16.00;;;13.90;99.90;;;;;;5050226;28;20247;-96
2022/10/16 11:25:58;;;;;;;21.70;14.73;;;13.90;99.90;;;;;;5046720;28;20208;-96
2022/10/16 11:28:39;;;;;;;21.70;14.70;;;13.90;99.90;;;;;;5053194;28;20192;-96
2022/10/16 11:31:23;;;;;;;21.33;15.17;;;13.90;99.90;;;;;;5055106;28;20227;-96
2022/10/16 11:34:06;;;;;;;27.67;14.60;;;13.90;99.90;;;;;;5053163;28;20200;-96
2022/10/16 11:36:44;;;;;;;22.47;14.67;;;14.00;99.90;;;;;;5054040;28;20276;-96
2022/10/16 11:39:24;;;;;;;24.60;14.57;;;14.00;99.90;;;;;;5053324;28;20577;-96
2022/10/16 11:42:05;;;;;;;26.47;14.73;;;14.00;99.90;;;;;;5051214;28;20275;-96
2022/10/16 11:44:49;;;;;;;19.80;14.40;;;14.10;99.90;;;;;;5043244;28;20233;-96
2022/10/16 11:47:44;;;;;;;22.43;14.27;;;14.10;99.90;;;;;;5049667;28;20223;-96
2022/10/16 11:50:34;;;;;;;20.77;13.80;;;14.00;99.90;;;;;;5048740;28;20189;-96
2022/10/16 11:53:16;;;;;;;20.87;14.33;;;14.00;99.90;;;;;;5052078;28;20269;-96
2022/10/16 11:55:49;;;;;;;19.07;14.00;;;14.00;99.90;;;;;;5049836;28;20220;-95
2022/10/16 11:58:28;;;;;;;22.73;14.47;;;13.90;99.90;;;;;;5049635;28;20286;-96
2022/10/16 12:01:08;;;;;;;21.33;13.27;;;13.90;99.90;;;;;;5048679;28;20260;-96
2022/10/16 12:03:49;;;;;;;18.10;13.70;;;13.90;99.90;;;;;;5045262;28;20685;-96
2022/10/16 12:06:33;;;;;;;20.93;14.03;;;13.80;99.90;;;;;;5046997;28;20205;-96
2022/10/16 12:09:06;;;;;;;15.73;13.37;;;13.80;99.90;;;;;;5048401;28;20263;-96
2022/10/16 12:11:41;;;;;;;17.47;13.87;;;13.80;99.90;;;;;;5044987;28;20201;-96
2022/10/16 12:14:36;;;;;;;22.17;14.93;;;13.70;99.90;;;;;;5046677;28;20201;-96
2022/10/16 12:17:29;;;;;;;23.53;14.60;;;13.70;99.90;;;;;;5053763;28;20203;-96
2022/10/16 12:20:23;;;;;;;18.47;14.13;;;13.70;99.90;;;;;;5056911;28;20260;-96
2022/10/16 12:22:58;;;;;;;21.47;12.83;;;13.70;99.90;;;;;;5052860;28;20208;-96
2022/10/16 12:25:32;;;;;;;17.10;12.87;;;13.70;99.90;;;;;;5041432;28;20216;-96
2022/10/16 12:28:06;;;;;;;20.50;13.63;;;13.70;99.90;;;;;;5047238;28;20223;-96
2022/10/16 12:30:40;;;;;;;16.60;12.57;;;13.70;99.90;;;;;;5048348;28;20223;-96
2022/10/16 12:33:24;;;;;;;19.90;12.30;;;13.70;99.90;;;;;;5055129;28;20207;-96
2022/10/16 12:36:01;;;;;;;16.67;11.63;;;13.70;99.90;;;;;;5057434;28;20223;-96
2022/10/16 12:38:40;;;;;;;16.20;11.40;;;13.60;99.90;;;;;;5053399;28;20209;-96
2022/10/16 12:41:14;;;;;;;15.70;11.00;;;13.60;99.90;;;;;;5060318;28;20189;-94
2022/10/16 12:43:51;;;;;;;16.80;10.60;;;13.70;99.90;;;;;;5141130;23;20236;-96
2022/10/16 12:49:09;;;;;;;16.57;11.23;;;13.70;99.90;;;;;;5161491;23;20226;-96
2022/10/16 12:51:50;;;;;;;14.43;10.47;;;13.60;99.90;;;;;;5031532;28;20265;-96
2022/10/16 12:54:30;;;;;;;15.07;10.43;;;13.70;99.90;;;;;;5032002;28;20205;-96
2022/10/16 12:57:24;;;;;;;14.50;10.13;;;13.70;99.90;;;;;;5036565;28;20210;-96
2022/10/16 13:00:05;;;;;;;16.20;10.60;;;13.70;99.90;;;;;;5036677;28;20204;-96
2022/10/16 13:03:05;;;;;;;14.17;10.90;;;13.70;99.90;;;;;;5035275;28;20205;-96
2022/10/16 13:05:58;;;;;;;16.20;10.10;;;13.70;99.90;;;;;;5058651;23;20247;-96
2022/10/16 13:08:51;;;;;;;18.67;11.03;;;13.70;99.90;;;;;;5032021;28;20213;-97
2022/10/16 13:11:30;;;;;;;13.63;10.23;;;13.70;99.90;;;;;;5037244;28;20261;-96
2022/10/16 13:14:20;;;;;;;16.80;10.57;;;13.70;99.90;;;;;;5036307;28;20216;-96
2022/10/16 13:17:03;;;;;;;13.60;10.13;;;13.60;99.90;;;;;;5036850;28;20285;-96
2022/10/16 13:19:45;;;;;;;15.60;10.10;;;13.70;99.90;;;;;;5035435;28;20206;-96
2022/10/16 13:22:26;;;;;;;13.93;10.23;;;13.70;99.90;;;;;;5035681;28;20210;-96
2022/10/16 13:25:15;;;;;;;15.67;10.13;;;13.70;99.90;;;;;;5037235;28;20608;-96
2022/10/16 13:27:56;;;;;;;15.23;9.97;;;13.70;99.90;;;;;;5038016;28;20218;-96
2022/10/16 13:38:28;;;;;;;14.27;8.93;;;13.80;99.90;;;;;;5238793;23;20300;-96
2022/10/16 13:43:37;;;;;;;13.23;8.53;;;13.90;99.90;;;;;;5033218;28;20225;-96
2022/10/16 13:46:16;;;;;;;13.70;9.20;;;14.00;99.90;;;;;;5037627;28;20194;-96
2022/10/16 13:49:03;;;;;;;13.33;8.60;;;14.10;99.90;;;;;;5039456;28;20217;-96
2022/10/16 13:51:36;;;;;;;13.10;8.23;;;14.10;99.90;;;;;;5038290;28;20217;-96
2022/10/16 13:54:12;;;;;;;14.07;8.43;;;14.10;99.90;;;;;;5037363;28;20265;-96
2022/10/16 13:56:56;;;;;;;11.33;7.47;;;14.10;99.90;;;;;;5172063;23;20312;-96
2022/10/16 14:45:24;;;;;;;9.47;6.63;;;14.30;99.90;;;;;;5692377;23;20263;-95
2022/10/16 14:47:59;;;;;;;12.23;7.30;;;14.30;99.90;;;;;;5055874;28;20272;-95
2022/10/16 14:50:36;;;;;;;10.50;7.07;;;14.30;99.90;;;;;;5054292;28;20224;-96
2022/10/16 14:53:16;;;;;;;8.23;6.40;;;14.30;99.90;;;;;;5107800;23;20245;-96
2022/10/16 14:55:49;;;;;;;8.23;6.63;;;14.30;99.90;;;;;;5035894;28;20217;-96
2022/10/16 14:58:25;;;;;;;9.23;6.67;;;14.30;99.90;;;;;;5034923;28;20225;-96
2022/10/16 15:01:02;;;;;;;8.20;7.00;;;14.30;99.90;;;;;;5035474;28;20197;-96
2022/10/16 15:03:34;;;;;;;11.70;7.07;;;14.30;99.90;;;;;;5021615;28;20193;-96
2022/10/16 15:06:30;;;;;;;9.63;6.67;;;14.20;99.90;;;;;;5306125;23;20268;-96
2022/10/16 15:09:06;;;;;;;10.40;7.40;;;14.30;99.90;;;;;;5036153;28;20237;-96
2022/10/16 15:11:48;;;;;;;10.47;7.73;;;14.30;99.90;;;;;;5034966;28;20248;-96
2022/10/16 15:52:15;;;;;;;9.13;5.90;;;15.30;99.90;;;;;;5422030;23;20260;-96
2022/10/16 16:02:54;;;;;;;7.73;5.37;;;16.20;99.90;;;;;;5800683;23;20267;-91
2022/10/16 16:05:25;;;;;;;6.97;5.23;;;16.40;99.90;;;;;;5024481;28;20236;-93
2022/10/16 16:07:59;;;;;;;8.23;5.67;;;16.60;99.90;;;;;;5026960;28;20213;-92
2022/10/16 16:10:32;;;;;;;10.70;5.07;;;16.70;99.90;;;;;;5036771;28;20204;-94
2022/10/16 16:13:03;;;;;;;7.70;5.50;;;16.80;99.90;;;;;;5038347;28;20675;-94
2022/10/16 16:15:34;;;;;;;6.77;5.30;;;16.90;99.90;;;;;;5038337;28;20343;-95
2022/10/16 16:18:06;;;;;;;9.20;5.27;;;16.90;99.90;;;;;;5027490;28;20207;-94
2022/10/16 16:20:38;;;;;;;7.23;5.30;;;17.00;99.90;;;;;;5032595;28;20255;-95
2022/10/16 16:23:17;;;;;;;10.73;4.87;;;17.20;99.90;;;;;;5032931;28;20209;-94
2022/10/16 16:26:08;;;;;;;8.30;5.27;;;17.40;99.90;;;;;;5039026;28;20235;-93
2022/10/16 16:28:40;;;;;;;9.23;5.20;;;17.90;99.90;;;;;;5040766;28;20216;-93
2022/10/16 16:31:11;;;;;;;6.87;4.80;;;18.00;99.90;;;;;;5041518;28;20205;-95
2022/10/16 16:33:42;;;;;;;7.50;5.03;;;18.10;99.90;;;;;;5039301;28;20220;-94
2022/10/16 16:36:13;;;;;;;9.00;4.87;;;18.20;99.90;;;;;;5030817;28;20217;-95
2022/10/16 16:38:47;;;;;;;5.97;5.23;;;18.30;99.90;;;;;;5035941;28;20188;-94
2022/10/16 16:41:20;;;;;;;7.03;5.27;;;18.30;99.90;;;;;;5035897;28;20213;-94
2022/10/16 16:43:52;;;;;;;7.00;4.97;;;18.40;99.90;;;;;;5036207;28;20658;-95
2022/10/16 16:46:24;;;;;;;5.07;4.53;;;18.70;99.90;;;;;;5039336;28;20243;-95
2022/10/16 16:48:55;;;;;;;6.70;5.07;;;18.80;99.90;;;;;;5024855;28;20206;-94
2022/10/16 16:51:26;;;;;;;8.53;5.40;;;19.00;99.90;;;;;;5020901;28;20209;-94
2022/10/16 16:54:02;;;;;;;7.03;5.07;;;19.10;99.90;;;;;;5022335;28;20208;-94
2022/10/16 16:56:42;;;;;;;7.70;5.33;;;19.20;99.90;;;;;;5032121;28;20200;-93
2022/10/16 16:59:17;;;;;;;7.10;4.97;;;19.40;99.90;;;;;;5045360;28;20225;-94
2022/10/16 17:01:49;;;;;;;7.93;5.20;;;19.40;99.90;;;;;;5044662;28;20212;-96
2022/10/16 17:04:27;;;;;;;7.93;5.50;;;19.50;99.90;;;;;;5045306;28;20285;-94
2022/10/16 17:07:01;;;;;;;7.70;5.00;;;19.70;99.90;;;;;;5032608;28;20677;-95
2022/10/16 17:09:36;;;;;;;9.03;5.50;;;19.70;99.90;;;;;;5035425;28;20220;-93
2022/10/16 17:12:11;;;;;;;6.27;4.57;;;19.80;99.90;;;;;;5043880;28;20197;-95
2022/10/16 17:14:43;;;;;;;7.87;5.17;;;20.40;99.90;;;;;;5041403;28;20216;-95
2022/10/16 17:17:14;;;;;;;6.27;4.77;;;20.50;99.90;;;;;;5040599;28;20209;-94
2022/10/16 17:19:47;;;;;;;7.03;5.03;;;20.60;99.90;;;;;;5028114;28;20210;-94
2022/10/16 17:22:19;;;;;;;8.67;5.27;;;20.70;99.90;;;;;;5018915;28;20210;-94
2022/10/16 17:24:54;;;;;;;9.23;4.93;;;20.80;99.90;;;;;;5019527;28;20281;-94
2022/10/16 17:27:27;;;;;;;8.33;4.90;;;21.00;99.90;;;;;;5020632;28;20258;-93
2022/10/16 17:30:00;;;;;;;7.80;4.03;;;21.10;99.90;;;;;;5042687;28;20276;-94
2022/10/16 17:32:31;;;;;;;5.03;3.40;;;21.20;99.90;;;;;;5042655;28;20203;-95
2022/10/16 17:35:08;;;;;;;5.50;3.60;;;21.40;99.90;;;;;;5036336;28;20658;-95
2022/10/16 17:37:45;;;;;;;6.33;3.23;;;21.70;99.90;;;;;;5036720;28;20224;-93
2022/10/16 17:40:22;;;;;;;8.80;3.90;;;21.90;99.90;;;;;;5032359;28;20201;-95
2022/10/16 17:42:54;;;;;;;6.40;3.10;;;22.60;97.30;;;;;;5041798;28;20204;-94
2022/10/16 17:45:27;;;;;;;9.43;3.10;;;22.60;97.00;;;;;;5044387;28;20232;-95
2022/10/16 17:48:00;;;;;;;7.27;3.70;;;22.80;96.80;;;;;;5046704;28;20213;-94
2022/10/16 17:50:32;;;;;;;5.13;3.40;;;22.80;97.20;;;;;;5047167;28;20216;-95
2022/10/16 17:53:11;;;;;;;8.03;3.20;;;22.80;96.40;;;;;;5046787;28;20236;-95
2022/10/16 17:55:44;;;;;;;4.20;3.13;;;23.00;95.10;;;;;;5041126;28;20209;-90
2022/10/16 17:58:18;;;;;;;4.73;2.70;;;23.40;94.30;;;;;;5034865;28;20236;-90
2022/10/16 18:00:50;;;;;;;6.50;3.70;;;23.50;93.80;;;;;;5044395;28;20208;-90
2022/10/16 18:03:21;;;;;;;9.37;3.80;;;23.50;93.70;;;;;;5043648;28;20215;-91
2022/10/16 18:05:55;;;;;;;4.60;3.23;;;23.70;93.40;;;;;;5044860;28;20233;-91
2022/10/16 18:08:28;;;;;;;9.27;2.90;;;23.80;91.90;;;;;;5047036;28;20200;-91
2022/10/16 18:11:02;;;;;;;4.87;3.20;;;23.90;91.30;;;;;;5046560;28;20204;-92
2022/10/16 18:13:35;;;;;;;5.40;2.70;;;24.20;90.40;;;;;;5040247;28;20220;-92
2022/10/16 18:16:09;;;;;;;5.20;2.70;;;24.40;88.60;;;;;;5029551;28;20214;-91
2022/10/16 18:18:46;;;;;;;3.10;2.80;;;24.60;89.40;;;;;;5034966;28;20280;-91
2022/10/16 18:21:19;;;;;;;3.63;2.40;;;24.80;85.50;;;;;;5045115;28;20208;-91
2022/10/16 18:23:51;;;;;;;2.87;2.33;;;24.80;87.90;;;;;;5045207;28;20209;-90
2022/10/16 18:26:25;;;;;;;6.37;2.33;;;24.80;84.60;;;;;;5046202;28;20225;-91
2022/10/16 18:28:59;;;;;;;6.23;2.70;;;25.20;84.30;;;;;;5045456;28;20217;-91
2022/10/16 18:31:30;;;;;;;4.27;2.30;;;25.10;83.70;;;;;;5045349;28;20209;-91
2022/10/16 18:34:03;;;;;;;2.90;1.90;;;25.40;80.20;;;;;;5044646;28;20209;-90
2022/10/16 18:36:36;;;;;;;3.27;2.30;;;25.50;80.00;;;;;;5039047;28;20201;-92
2022/10/16 18:39:09;;;;;;;3.50;2.60;;;25.60;78.70;;;;;;5046973;28;20209;-90
2022/10/16 18:41:46;;;;;;;3.90;2.80;;;25.70;78.40;;;;;;5046661;28;20201;-91
2022/10/16 18:44:18;;;;;;;3.97;2.63;;;25.80;76.40;;;;;;5038160;28;20236;-92
2022/10/16 18:46:51;;;;;;;2.83;2.50;;;26.20;74.80;;;;;;5024886;28;20324;-91
2022/10/16 18:49:23;;;;;;;5.80;2.80;;;26.10;75.30;;;;;;5025224;28;20225;-92
2022/10/16 18:51:56;;;;;;;4.47;2.50;;;26.10;75.50;;;;;;5024778;28;20217;-92
2022/10/16 18:54:27;;;;;;;4.97;2.60;;;26.10;74.40;;;;;;5035649;28;20266;-92
2022/10/16 18:57:02;;;;;;;5.87;3.00;;;26.10;75.00;;;;;;5025978;28;20203;-91
2022/10/16 18:59:34;;;;;;;3.50;2.63;;;26.30;73.20;;;;;;5028336;28;20217;-92